Ocean Spirit of Moray — MVXF5 — position and weather

sailwx.info

Track history (hours):
 
Tides and Currents Weather Stations Pressure Air Temp Water Temp Dewpoint Dewpoint Depression Visibility Wind Speed Wind Dir Waves Ship Positions

Ocean Spirit of Moray (United Kingdom)

Ship's website: http://www.gordonstoun.org.uk/

Last reported at 2018-May-20 12:02 UTC. Time now 2018-May-23 11:13 UTC.
Position N 57°20' W 005°53'.

Length 24 m; draft 3 m.

Type: Sailing vessel. MMSI: 232007590.

Date/timePositionNaut miles runAvg speedWind from/ knotsBaromVisibWave heightAir tempDewpointWater temp
2018-May-20 12:02N 57°20' W 005°53'0 6.8
2018-May-20 11:59N 57°20' W 005°53'3 6.7
2018-May-20 11:30N 57°17' W 005°49'3 0.1
2018-May-18 14:54N 57°19' W 005°45'  
2018-May-15 14:27N 57°20' W 005°52'2 5.5
2018-May-15 14:00N 57°18' W 005°50'2 3.3
2018-May-15 13:30N 57°18' W 005°47'4 1.7
2018-May-15 11:06N 57°16' W 005°40'1 7.0
2018-May-15 10:57N 57°16' W 005°42'3 6.1
2018-May-15 10:30N 57°18' W 005°46'3 4.6
2018-May-15 09:57N 57°20' W 005°44'  
Track history (hours):
 
Tides and Currents Weather Stations Pressure Air Temp Water Temp Dewpoint Dewpoint Depression Visibility Wind Speed Wind Dir Waves Ship Positions

Ocean Spirit of Moray (United Kingdom)

Ship's website: http://www.gordonstoun.org.uk/

Last reported at 2018-May-20 12:02 UTC. Time now 2018-May-23 11:13 UTC.
Position N 57°20' W 005°53'.

Length 24 m; draft 3 m.

Type: Sailing vessel. MMSI: 232007590.

Date/timePositionNaut miles runAvg speedWind from/ knotsBaromVisibWave heightAir tempDewpointWater temp
2018-May-20 12:02N 57°20' W 005°53'0 6.8
2018-May-20 11:59N 57°20' W 005°53'3 6.7
2018-May-20 11:30N 57°17' W 005°49'3 0.1
2018-May-18 14:54N 57°19' W 005°45'  
2018-May-15 14:27N 57°20' W 005°52'2 5.5
2018-May-15 14:00N 57°18' W 005°50'2 3.3
2018-May-15 13:30N 57°18' W 005°47'4 1.7
2018-May-15 11:06N 57°16' W 005°40'1 7.0
2018-May-15 10:57N 57°16' W 005°42'3 6.1
2018-May-15 10:30N 57°18' W 005°46'3 4.6
2018-May-15 09:57N 57°20' W 005°44'  

Dump ship's entire track history